sensor_id;sensor_type;location;lat;lon;timestamp;P1;durP1;ratioP1;P2;durP2;ratioP2
76021;SDS011;64718;52.124;6.226;2022-11-20T00:00:08;21.83;;;11.43;;
76021;SDS011;64718;52.124;6.226;2022-11-20T00:02:35;23.05;;;11.25;;
76021;SDS011;64718;52.124;6.226;2022-11-20T00:05:02;21.20;;;11.98;;
76021;SDS011;64718;52.124;6.226;2022-11-20T00:07:29;23.95;;;11.48;;
76021;SDS011;64718;52.124;6.226;2022-11-20T00:09:55;20.67;;;11.25;;
76021;SDS011;64718;52.124;6.226;2022-11-20T00:12:22;21.95;;;11.68;;
76021;SDS011;64718;52.124;6.226;2022-11-20T00:14:48;24.92;;;12.68;;
76021;SDS011;64718;52.124;6.226;2022-11-20T00:17:16;22.85;;;12.05;;
76021;SDS011;64718;52.124;6.226;2022-11-20T00:19:43;21.15;;;11.68;;
76021;SDS011;64718;52.124;6.226;2022-11-20T00:22:09;21.17;;;10.20;;
76021;SDS011;64718;52.124;6.226;2022-11-20T00:24:36;21.92;;;11.48;;
76021;SDS011;64718;52.124;6.226;2022-11-20T00:27:02;22.25;;;11.82;;
76021;SDS011;64718;52.124;6.226;2022-11-20T00:29:29;21.98;;;11.02;;
76021;SDS011;64718;52.124;6.226;2022-11-20T00:31:55;17.60;;;9.63;;
76021;SDS011;64718;52.124;6.226;2022-11-20T00:34:23;26.35;;;11.60;;
76021;SDS011;64718;52.124;6.226;2022-11-20T00:36:50;23.02;;;11.77;;
76021;SDS011;64718;52.124;6.226;2022-11-20T00:39:16;22.58;;;12.52;;
76021;SDS011;64718;52.124;6.226;2022-11-20T00:41:42;20.85;;;11.30;;
76021;SDS011;64718;52.124;6.226;2022-11-20T00:44:09;24.58;;;12.05;;
76021;SDS011;64718;52.124;6.226;2022-11-20T00:46:35;18.75;;;10.52;;
76021;SDS011;64718;52.124;6.226;2022-11-20T00:49:02;22.38;;;11.90;;
76021;SDS011;64718;52.124;6.226;2022-11-20T00:51:30;20.30;;;11.15;;
76021;SDS011;64718;52.124;6.226;2022-11-20T00:53:57;21.75;;;12.93;;
76021;SDS011;64718;52.124;6.226;2022-11-20T00:56:24;27.48;;;15.10;;
76021;SDS011;64718;52.124;6.226;2022-11-20T00:58:51;21.63;;;11.32;;
76021;SDS011;64718;52.124;6.226;2022-11-20T01:01:18;23.08;;;12.65;;
76021;SDS011;64718;52.124;6.226;2022-11-20T01:03:49;21.98;;;12.65;;
76021;SDS011;64718;52.124;6.226;2022-11-20T01:06:17;18.30;;;10.60;;
76021;SDS011;64718;52.124;6.226;2022-11-20T01:08:46;22.50;;;11.68;;
76021;SDS011;64718;52.124;6.226;2022-11-20T01:11:14;20.10;;;10.55;;
76021;SDS011;64718;52.124;6.226;2022-11-20T01:13:42;21.50;;;10.60;;
76021;SDS011;64718;52.124;6.226;2022-11-20T01:16:11;21.95;;;12.23;;
76021;SDS011;64718;52.124;6.226;2022-11-20T01:18:39;22.27;;;10.60;;
76021;SDS011;64718;52.124;6.226;2022-11-20T01:21:07;22.55;;;11.07;;
76021;SDS011;64718;52.124;6.226;2022-11-20T01:23:36;23.17;;;11.70;;
76021;SDS011;64718;52.124;6.226;2022-11-20T01:26:07;16.08;;;10.15;;
76021;SDS011;64718;52.124;6.226;2022-11-20T01:28:35;20.35;;;10.95;;
76021;SDS011;64718;52.124;6.226;2022-11-20T01:31:02;20.80;;;10.88;;
76021;SDS011;64718;52.124;6.226;2022-11-20T01:33:38;18.77;;;10.75;;
76021;SDS011;64718;52.124;6.226;2022-11-20T01:36:05;19.08;;;10.30;;
76021;SDS011;64718;52.124;6.226;2022-11-20T01:38:33;21.52;;;11.00;;
76021;SDS011;64718;52.124;6.226;2022-11-20T01:40:59;21.90;;;12.32;;
76021;SDS011;64718;52.124;6.226;2022-11-20T01:43:27;23.70;;;12.35;;
76021;SDS011;64718;52.124;6.226;2022-11-20T01:46:00;24.70;;;12.10;;
76021;SDS011;64718;52.124;6.226;2022-11-20T01:50:58;17.30;;;9.27;;
76021;SDS011;64718;52.124;6.226;2022-11-20T01:53:28;23.10;;;11.32;;
76021;SDS011;64718;52.124;6.226;2022-11-20T01:55:58;22.58;;;10.90;;
76021;SDS011;64718;52.124;6.226;2022-11-20T01:58:30;20.35;;;9.52;;
76021;SDS011;64718;52.124;6.226;2022-11-20T02:00:59;20.88;;;11.38;;
76021;SDS011;64718;52.124;6.226;2022-11-20T02:03:26;21.20;;;12.85;;
76021;SDS011;64718;52.124;6.226;2022-11-20T02:05:54;18.42;;;10.30;;
76021;SDS011;64718;52.124;6.226;2022-11-20T02:08:25;17.85;;;9.32;;
76021;SDS011;64718;52.124;6.226;2022-11-20T02:10:52;16.48;;;9.15;;
76021;SDS011;64718;52.124;6.226;2022-11-20T02:13:18;22.35;;;10.60;;
76021;SDS011;64718;52.124;6.226;2022-11-20T02:16:04;20.30;;;10.95;;
76021;SDS011;64718;52.124;6.226;2022-11-20T02:18:34;21.35;;;10.98;;
76021;SDS011;64718;52.124;6.226;2022-11-20T02:21:03;23.98;;;12.45;;
76021;SDS011;64718;52.124;6.226;2022-11-20T02:23:35;19.13;;;10.60;;
76021;SDS011;64718;52.124;6.226;2022-11-20T02:26:08;18.27;;;11.57;;
76021;SDS011;64718;52.124;6.226;2022-11-20T02:28:39;16.88;;;9.50;;
76021;SDS011;64718;52.124;6.226;2022-11-20T02:31:05;20.73;;;9.68;;
76021;SDS011;64718;52.124;6.226;2022-11-20T02:33:32;20.88;;;10.30;;
76021;SDS011;64718;52.124;6.226;2022-11-20T02:35:59;22.33;;;9.93;;
76021;SDS011;64718;52.124;6.226;2022-11-20T02:38:26;19.35;;;10.50;;
76021;SDS011;64718;52.124;6.226;2022-11-20T02:40:52;14.77;;;8.90;;
76021;SDS011;64718;52.124;6.226;2022-11-20T02:43:20;20.33;;;11.05;;
76021;SDS011;64718;52.124;6.226;2022-11-20T02:45:47;19.05;;;10.43;;
76021;SDS011;64718;52.124;6.226;2022-11-20T02:48:13;19.80;;;10.43;;
76021;SDS011;64718;52.124;6.226;2022-11-20T02:50:40;19.08;;;9.63;;
76021;SDS011;64718;52.124;6.226;2022-11-20T02:53:06;16.42;;;10.10;;
76021;SDS011;64718;52.124;6.226;2022-11-20T02:55:33;17.63;;;9.00;;
76021;SDS011;64718;52.124;6.226;2022-11-20T02:58:00;19.67;;;10.07;;
76021;SDS011;64718;52.124;6.226;2022-11-20T03:00:28;20.83;;;9.70;;
76021;SDS011;64718;52.124;6.226;2022-11-20T03:02:54;19.27;;;10.27;;
76021;SDS011;64718;52.124;6.226;2022-11-20T03:05:21;15.30;;;9.48;;
76021;SDS011;64718;52.124;6.226;2022-11-20T03:07:47;23.08;;;10.15;;
76021;SDS011;64718;52.124;6.226;2022-11-20T03:10:14;20.55;;;11.18;;
76021;SDS011;64718;52.124;6.226;2022-11-20T03:12:41;19.98;;;10.98;;
76021;SDS011;64718;52.124;6.226;2022-11-20T03:15:07;20.95;;;9.98;;
76021;SDS011;64718;52.124;6.226;2022-11-20T03:17:36;22.67;;;11.10;;
76021;SDS011;64718;52.124;6.226;2022-11-20T03:20:03;18.83;;;10.32;;
76021;SDS011;64718;52.124;6.226;2022-11-20T03:22:31;19.90;;;9.90;;
76021;SDS011;64718;52.124;6.226;2022-11-20T03:24:57;20.10;;;10.95;;
76021;SDS011;64718;52.124;6.226;2022-11-20T03:27:23;17.77;;;10.35;;
76021;SDS011;64718;52.124;6.226;2022-11-20T03:29:50;19.27;;;10.23;;
76021;SDS011;64718;52.124;6.226;2022-11-20T03:32:17;14.45;;;8.77;;
76021;SDS011;64718;52.124;6.226;2022-11-20T03:34:44;16.08;;;8.48;;
76021;SDS011;64718;52.124;6.226;2022-11-20T03:37:11;16.58;;;9.52;;
76021;SDS011;64718;52.124;6.226;2022-11-20T03:39:37;18.73;;;10.30;;
76021;SDS011;64718;52.124;6.226;2022-11-20T03:42:04;16.60;;;9.95;;
76021;SDS011;64718;52.124;6.226;2022-11-20T03:44:50;18.77;;;7.88;;
76021;SDS011;64718;52.124;6.226;2022-11-20T03:47:17;19.33;;;9.82;;
76021;SDS011;64718;52.124;6.226;2022-11-20T03:49:45;18.85;;;9.13;;
76021;SDS011;64718;52.124;6.226;2022-11-20T03:52:11;19.20;;;10.05;;
76021;SDS011;64718;52.124;6.226;2022-11-20T03:54:38;15.98;;;8.70;;
76021;SDS011;64718;52.124;6.226;2022-11-20T03:57:04;20.10;;;9.88;;
76021;SDS011;64718;52.124;6.226;2022-11-20T03:59:31;15.52;;;9.07;;
76021;SDS011;64718;52.124;6.226;2022-11-20T04:01:57;16.15;;;8.93;;
76021;SDS011;64718;52.124;6.226;2022-11-20T04:04:24;16.65;;;8.82;;
76021;SDS011;64718;52.124;6.226;2022-11-20T04:06:51;15.10;;;8.85;;
76021;SDS011;64718;52.124;6.226;2022-11-20T04:09:18;17.98;;;7.85;;
76021;SDS011;64718;52.124;6.226;2022-11-20T04:11:44;16.13;;;8.13;;
76021;SDS011;64718;52.124;6.226;2022-11-20T04:14:12;14.45;;;8.48;;
76021;SDS011;64718;52.124;6.226;2022-11-20T04:16:40;15.73;;;7.50;;
76021;SDS011;64718;52.124;6.226;2022-11-20T04:19:09;15.10;;;8.30;;
76021;SDS011;64718;52.124;6.226;2022-11-20T04:21:36;16.83;;;8.50;;
76021;SDS011;64718;52.124;6.226;2022-11-20T04:24:05;15.02;;;7.78;;
76021;SDS011;64718;52.124;6.226;2022-11-20T04:26:32;14.95;;;8.70;;
76021;SDS011;64718;52.124;6.226;2022-11-20T04:28:59;14.88;;;7.40;;
76021;SDS011;64718;52.124;6.226;2022-11-20T04:31:27;13.43;;;8.15;;
76021;SDS011;64718;52.124;6.226;2022-11-20T04:33:58;17.23;;;9.50;;
76021;SDS011;64718;52.124;6.226;2022-11-20T04:36:26;16.83;;;8.45;;
76021;SDS011;64718;52.124;6.226;2022-11-20T04:38:54;16.15;;;7.82;;
76021;SDS011;64718;52.124;6.226;2022-11-20T04:41:23;19.27;;;9.52;;
76021;SDS011;64718;52.124;6.226;2022-11-20T04:46:19;19.90;;;8.07;;
76021;SDS011;64718;52.124;6.226;2022-11-20T04:48:47;17.10;;;7.70;;
76021;SDS011;64718;52.124;6.226;2022-11-20T04:51:14;16.17;;;8.75;;
76021;SDS011;64718;52.124;6.226;2022-11-20T04:53:40;16.65;;;9.55;;
76021;SDS011;64718;52.124;6.226;2022-11-20T04:56:08;15.30;;;8.13;;
76021;SDS011;64718;52.124;6.226;2022-11-20T04:58:38;15.98;;;8.90;;
76021;SDS011;64718;52.124;6.226;2022-11-20T05:01:05;16.52;;;9.20;;
76021;SDS011;64718;52.124;6.226;2022-11-20T05:03:34;15.55;;;8.60;;
76021;SDS011;64718;52.124;6.226;2022-11-20T05:06:02;14.32;;;8.32;;
76021;SDS011;64718;52.124;6.226;2022-11-20T05:08:29;16.17;;;8.75;;
76021;SDS011;64718;52.124;6.226;2022-11-20T05:10:59;12.52;;;7.38;;
76021;SDS011;64718;52.124;6.226;2022-11-20T05:13:26;11.77;;;7.80;;
76021;SDS011;64718;52.124;6.226;2022-11-20T05:15:54;14.95;;;7.28;;
76021;SDS011;64718;52.124;6.226;2022-11-20T05:18:20;12.77;;;7.75;;
76021;SDS011;64718;52.124;6.226;2022-11-20T05:20:47;12.23;;;7.57;;
76021;SDS011;64718;52.124;6.226;2022-11-20T05:23:20;14.75;;;8.50;;
76021;SDS011;64718;52.124;6.226;2022-11-20T05:25:47;15.93;;;8.07;;
76021;SDS011;64718;52.124;6.226;2022-11-20T05:28:13;14.48;;;8.05;;
76021;SDS011;64718;52.124;6.226;2022-11-20T05:30:40;13.25;;;7.57;;
76021;SDS011;64718;52.124;6.226;2022-11-20T05:33:08;11.25;;;6.30;;
76021;SDS011;64718;52.124;6.226;2022-11-20T05:35:35;12.90;;;8.23;;
76021;SDS011;64718;52.124;6.226;2022-11-20T05:38:01;14.38;;;8.18;;
76021;SDS011;64718;52.124;6.226;2022-11-20T05:40:28;14.60;;;7.90;;
76021;SDS011;64718;52.124;6.226;2022-11-20T05:42:54;15.95;;;8.13;;
76021;SDS011;64718;52.124;6.226;2022-11-20T05:45:21;18.83;;;8.65;;
76021;SDS011;64718;52.124;6.226;2022-11-20T05:47:47;15.85;;;7.47;;
76021;SDS011;64718;52.124;6.226;2022-11-20T05:50:15;14.70;;;8.00;;
76021;SDS011;64718;52.124;6.226;2022-11-20T05:52:42;15.85;;;7.60;;
76021;SDS011;64718;52.124;6.226;2022-11-20T05:55:08;13.68;;;8.05;;
76021;SDS011;64718;52.124;6.226;2022-11-20T05:57:35;12.02;;;7.65;;
76021;SDS011;64718;52.124;6.226;2022-11-20T06:00:02;14.93;;;7.97;;
76021;SDS011;64718;52.124;6.226;2022-11-20T06:02:29;13.20;;;7.50;;
76021;SDS011;64718;52.124;6.226;2022-11-20T06:04:56;14.35;;;7.90;;
76021;SDS011;64718;52.124;6.226;2022-11-20T06:07:24;13.90;;;7.28;;
76021;SDS011;64718;52.124;6.226;2022-11-20T06:09:50;12.20;;;8.00;;
76021;SDS011;64718;52.124;6.226;2022-11-20T06:12:17;16.33;;;9.32;;
76021;SDS011;64718;52.124;6.226;2022-11-20T06:14:43;16.55;;;8.93;;
76021;SDS011;64718;52.124;6.226;2022-11-20T06:17:10;16.13;;;7.93;;
76021;SDS011;64718;52.124;6.226;2022-11-20T06:19:36;17.10;;;7.82;;
76021;SDS011;64718;52.124;6.226;2022-11-20T06:22:03;14.32;;;8.70;;
76021;SDS011;64718;52.124;6.226;2022-11-20T06:24:31;18.73;;;9.35;;
76021;SDS011;64718;52.124;6.226;2022-11-20T06:26:57;13.40;;;7.78;;
76021;SDS011;64718;52.124;6.226;2022-11-20T06:29:24;15.00;;;8.38;;
76021;SDS011;64718;52.124;6.226;2022-11-20T06:31:50;13.85;;;7.95;;
76021;SDS011;64718;52.124;6.226;2022-11-20T06:34:17;13.30;;;8.02;;
76021;SDS011;64718;52.124;6.226;2022-11-20T06:36:43;15.32;;;8.50;;
76021;SDS011;64718;52.124;6.226;2022-11-20T06:39:10;12.15;;;7.50;;
76021;SDS011;64718;52.124;6.226;2022-11-20T06:41:38;15.65;;;8.23;;
76021;SDS011;64718;52.124;6.226;2022-11-20T06:44:04;18.60;;;9.82;;
76021;SDS011;64718;52.124;6.226;2022-11-20T06:46:31;14.27;;;7.50;;
76021;SDS011;64718;52.124;6.226;2022-11-20T06:48:58;17.02;;;7.72;;
76021;SDS011;64718;52.124;6.226;2022-11-20T06:51:24;19.90;;;8.80;;
76021;SDS011;64718;52.124;6.226;2022-11-20T06:53:51;17.02;;;8.77;;
76021;SDS011;64718;52.124;6.226;2022-11-20T06:56:17;17.58;;;9.23;;
76021;SDS011;64718;52.124;6.226;2022-11-20T06:58:45;13.77;;;7.53;;
76021;SDS011;64718;52.124;6.226;2022-11-20T07:01:12;15.00;;;8.32;;
76021;SDS011;64718;52.124;6.226;2022-11-20T07:03:40;15.13;;;7.32;;
76021;SDS011;64718;52.124;6.226;2022-11-20T07:06:07;12.95;;;7.68;;
76021;SDS011;64718;52.124;6.226;2022-11-20T07:08:34;16.83;;;8.10;;
76021;SDS011;64718;52.124;6.226;2022-11-20T07:11:01;15.15;;;9.60;;
76021;SDS011;64718;52.124;6.226;2022-11-20T07:13:30;14.90;;;8.52;;
76021;SDS011;64718;52.124;6.226;2022-11-20T07:16:00;17.13;;;8.75;;
76021;SDS011;64718;52.124;6.226;2022-11-20T07:18:27;15.85;;;8.38;;
76021;SDS011;64718;52.124;6.226;2022-11-20T07:20:53;16.88;;;9.07;;
76021;SDS011;64718;52.124;6.226;2022-11-20T07:23:20;16.80;;;9.02;;
76021;SDS011;64718;52.124;6.226;2022-11-20T07:25:46;18.85;;;9.00;;
76021;SDS011;64718;52.124;6.226;2022-11-20T07:28:13;17.70;;;9.00;;
76021;SDS011;64718;52.124;6.226;2022-11-20T07:30:39;15.45;;;8.23;;
76021;SDS011;64718;52.124;6.226;2022-11-20T07:33:07;15.82;;;8.95;;
76021;SDS011;64718;52.124;6.226;2022-11-20T07:35:34;18.55;;;9.48;;
76021;SDS011;64718;52.124;6.226;2022-11-20T07:38:00;17.65;;;9.32;;
76021;SDS011;64718;52.124;6.226;2022-11-20T07:40:27;14.43;;;8.80;;
76021;SDS011;64718;52.124;6.226;2022-11-20T07:42:54;20.33;;;9.48;;
76021;SDS011;64718;52.124;6.226;2022-11-20T07:45:22;18.55;;;9.25;;
76021;SDS011;64718;52.124;6.226;2022-11-20T07:47:49;18.38;;;10.05;;
76021;SDS011;64718;52.124;6.226;2022-11-20T07:50:18;18.13;;;8.57;;
76021;SDS011;64718;52.124;6.226;2022-11-20T07:52:45;15.90;;;9.77;;
76021;SDS011;64718;52.124;6.226;2022-11-20T07:55:12;18.02;;;10.05;;
76021;SDS011;64718;52.124;6.226;2022-11-20T07:57:38;15.43;;;9.07;;
76021;SDS011;64718;52.124;6.226;2022-11-20T08:00:06;15.18;;;8.82;;
76021;SDS011;64718;52.124;6.226;2022-11-20T08:02:36;17.75;;;8.95;;
76021;SDS011;64718;52.124;6.226;2022-11-20T08:05:03;16.50;;;9.05;;
76021;SDS011;64718;52.124;6.226;2022-11-20T08:07:35;18.90;;;9.68;;
76021;SDS011;64718;52.124;6.226;2022-11-20T08:10:03;13.80;;;8.13;;
76021;SDS011;64718;52.124;6.226;2022-11-20T08:12:30;17.50;;;8.50;;
76021;SDS011;64718;52.124;6.226;2022-11-20T08:15:14;16.55;;;9.02;;
76021;SDS011;64718;52.124;6.226;2022-11-20T08:17:41;16.95;;;8.80;;
76021;SDS011;64718;52.124;6.226;2022-11-20T08:20:08;22.25;;;11.35;;
76021;SDS011;64718;52.124;6.226;2022-11-20T08:22:36;21.20;;;11.18;;
76021;SDS011;64718;52.124;6.226;2022-11-20T08:25:03;23.08;;;10.88;;
76021;SDS011;64718;52.124;6.226;2022-11-20T08:27:31;16.52;;;9.30;;
76021;SDS011;64718;52.124;6.226;2022-11-20T08:29:57;21.52;;;10.57;;
76021;SDS011;64718;52.124;6.226;2022-11-20T08:32:24;15.85;;;9.25;;
76021;SDS011;64718;52.124;6.226;2022-11-20T08:34:50;18.48;;;10.13;;
76021;SDS011;64718;52.124;6.226;2022-11-20T08:37:17;15.23;;;10.13;;
76021;SDS011;64718;52.124;6.226;2022-11-20T08:39:45;21.00;;;11.27;;
76021;SDS011;64718;52.124;6.226;2022-11-20T08:42:11;19.42;;;10.55;;
76021;SDS011;64718;52.124;6.226;2022-11-20T08:44:38;18.48;;;11.57;;
76021;SDS011;64718;52.124;6.226;2022-11-20T08:47:04;22.30;;;11.15;;
76021;SDS011;64718;52.124;6.226;2022-11-20T08:49:31;20.10;;;11.93;;
76021;SDS011;64718;52.124;6.226;2022-11-20T08:51:57;23.50;;;12.80;;
76021;SDS011;64718;52.124;6.226;2022-11-20T08:54:24;21.67;;;11.55;;
76021;SDS011;64718;52.124;6.226;2022-11-20T08:56:52;21.10;;;12.02;;
76021;SDS011;64718;52.124;6.226;2022-11-20T08:59:19;20.95;;;12.32;;
76021;SDS011;64718;52.124;6.226;2022-11-20T09:01:45;21.70;;;11.57;;
76021;SDS011;64718;52.124;6.226;2022-11-20T09:04:12;20.23;;;12.10;;
76021;SDS011;64718;52.124;6.226;2022-11-20T09:06:39;20.70;;;12.65;;
76021;SDS011;64718;52.124;6.226;2022-11-20T09:09:05;21.73;;;13.00;;
76021;SDS011;64718;52.124;6.226;2022-11-20T09:11:32;19.45;;;11.95;;
76021;SDS011;64718;52.124;6.226;2022-11-20T09:14:01;20.55;;;11.77;;
76021;SDS011;64718;52.124;6.226;2022-11-20T09:16:29;24.13;;;12.77;;
76021;SDS011;64718;52.124;6.226;2022-11-20T09:18:56;17.05;;;11.45;;
76021;SDS011;64718;52.124;6.226;2022-11-20T09:21:22;21.70;;;11.27;;
76021;SDS011;64718;52.124;6.226;2022-11-20T09:23:49;26.55;;;12.65;;
76021;SDS011;64718;52.124;6.226;2022-11-20T09:26:16;19.83;;;11.27;;
76021;SDS011;64718;52.124;6.226;2022-11-20T09:28:42;21.15;;;12.25;;
76021;SDS011;64718;52.124;6.226;2022-11-20T09:31:13;21.42;;;13.15;;
76021;SDS011;64718;52.124;6.226;2022-11-20T09:33:46;28.75;;;16.50;;
76021;SDS011;64718;52.124;6.226;2022-11-20T09:36:13;25.35;;;14.25;;
76021;SDS011;64718;52.124;6.226;2022-11-20T09:38:40;19.25;;;12.10;;
76021;SDS011;64718;52.124;6.226;2022-11-20T09:41:10;23.50;;;13.95;;
76021;SDS011;64718;52.124;6.226;2022-11-20T09:43:57;31.20;;;18.92;;
76021;SDS011;64718;52.124;6.226;2022-11-20T09:46:35;35.75;;;22.70;;
76021;SDS011;64718;52.124;6.226;2022-11-20T09:49:13;24.33;;;14.13;;
76021;SDS011;64718;52.124;6.226;2022-11-20T09:51:52;23.30;;;14.27;;
76021;SDS011;64718;52.124;6.226;2022-11-20T09:54:25;23.60;;;14.10;;
76021;SDS011;64718;52.124;6.226;2022-11-20T09:56:56;21.13;;;10.90;;
76021;SDS011;64718;52.124;6.226;2022-11-20T09:59:33;21.10;;;12.40;;
76021;SDS011;64718;52.124;6.226;2022-11-20T10:04:56;23.25;;;13.75;;
76021;SDS011;64718;52.124;6.226;2022-11-20T10:07:29;26.23;;;17.23;;
76021;SDS011;64718;52.124;6.226;2022-11-20T10:10:02;23.35;;;15.52;;
76021;SDS011;64718;52.124;6.226;2022-11-20T10:12:31;23.50;;;16.77;;
76021;SDS011;64718;52.124;6.226;2022-11-20T10:15:23;22.73;;;14.02;;
76021;SDS011;64718;52.124;6.226;2022-11-20T10:18:08;22.83;;;13.10;;
76021;SDS011;64718;52.124;6.226;2022-11-20T10:20:43;23.08;;;14.23;;
76021;SDS011;64718;52.124;6.226;2022-11-20T10:23:19;22.80;;;13.55;;
76021;SDS011;64718;52.124;6.226;2022-11-20T10:25:56;20.75;;;13.85;;
76021;SDS011;64718;52.124;6.226;2022-11-20T10:28:30;19.50;;;11.10;;
76021;SDS011;64718;52.124;6.226;2022-11-20T10:31:08;20.67;;;12.88;;
76021;SDS011;64718;52.124;6.226;2022-11-20T10:33:42;21.52;;;13.07;;
76021;SDS011;64718;52.124;6.226;2022-11-20T10:36:14;22.75;;;13.20;;
76021;SDS011;64718;52.124;6.226;2022-11-20T10:38:46;27.52;;;14.93;;
76021;SDS011;64718;52.124;6.226;2022-11-20T10:41:16;28.08;;;16.63;;
76021;SDS011;64718;52.124;6.226;2022-11-20T10:43:52;17.75;;;11.82;;
76021;SDS011;64718;52.124;6.226;2022-11-20T10:46:26;20.85;;;12.13;;
76021;SDS011;64718;52.124;6.226;2022-11-20T10:49:03;22.27;;;13.50;;
76021;SDS011;64718;52.124;6.226;2022-11-20T10:51:38;25.60;;;13.68;;
76021;SDS011;64718;52.124;6.226;2022-11-20T10:54:17;20.30;;;12.02;;
76021;SDS011;64718;52.124;6.226;2022-11-20T10:56:49;23.70;;;11.80;;
76021;SDS011;64718;52.124;6.226;2022-11-20T10:59:31;22.92;;;13.38;;
76021;SDS011;64718;52.124;6.226;2022-11-20T11:02:18;23.70;;;13.05;;
76021;SDS011;64718;52.124;6.226;2022-11-20T11:04:47;20.40;;;12.77;;
76021;SDS011;64718;52.124;6.226;2022-11-20T11:07:16;25.60;;;14.43;;
76021;SDS011;64718;52.124;6.226;2022-11-20T11:09:47;23.27;;;12.75;;
76021;SDS011;64718;52.124;6.226;2022-11-20T11:12:15;22.65;;;13.68;;
76021;SDS011;64718;52.124;6.226;2022-11-20T11:14:43;27.08;;;13.43;;
76021;SDS011;64718;52.124;6.226;2022-11-20T11:17:24;20.50;;;12.35;;
76021;SDS011;64718;52.124;6.226;2022-11-20T11:20:02;19.05;;;12.07;;
76021;SDS011;64718;52.124;6.226;2022-11-20T11:22:32;21.45;;;12.98;;
76021;SDS011;64718;52.124;6.226;2022-11-20T11:25:00;19.95;;;12.85;;
76021;SDS011;64718;52.124;6.226;2022-11-20T11:27:27;23.33;;;14.48;;
76021;SDS011;64718;52.124;6.226;2022-11-20T11:30:01;23.13;;;14.45;;
76021;SDS011;64718;52.124;6.226;2022-11-20T11:32:39;28.70;;;14.95;;
76021;SDS011;64718;52.124;6.226;2022-11-20T11:35:19;22.42;;;15.63;;
76021;SDS011;64718;52.124;6.226;2022-11-20T11:37:50;26.05;;;15.25;;
76021;SDS011;64718;52.124;6.226;2022-11-20T11:40:19;25.63;;;14.60;;
76021;SDS011;64718;52.124;6.226;2022-11-20T11:42:50;26.17;;;16.13;;
76021;SDS011;64718;52.124;6.226;2022-11-20T11:45:20;26.83;;;14.90;;
76021;SDS011;64718;52.124;6.226;2022-11-20T11:47:46;24.00;;;14.73;;
76021;SDS011;64718;52.124;6.226;2022-11-20T11:50:17;23.17;;;13.60;;
76021;SDS011;64718;52.124;6.226;2022-11-20T11:52:46;23.05;;;14.77;;
76021;SDS011;64718;52.124;6.226;2022-11-20T11:55:24;24.02;;;14.20;;
76021;SDS011;64718;52.124;6.226;2022-11-20T11:57:57;22.60;;;13.48;;
76021;SDS011;64718;52.124;6.226;2022-11-20T12:00:37;22.52;;;13.52;;
76021;SDS011;64718;52.124;6.226;2022-11-20T12:03:08;20.52;;;13.38;;
76021;SDS011;64718;52.124;6.226;2022-11-20T12:05:43;19.33;;;12.50;;
76021;SDS011;64718;52.124;6.226;2022-11-20T12:08:13;19.00;;;12.80;;
76021;SDS011;64718;52.124;6.226;2022-11-20T12:10:45;18.13;;;12.88;;
76021;SDS011;64718;52.124;6.226;2022-11-20T12:13:25;22.95;;;15.02;;
76021;SDS011;64718;52.124;6.226;2022-11-20T12:16:00;21.33;;;13.52;;
76021;SDS011;64718;52.124;6.226;2022-11-20T12:18:29;21.30;;;12.13;;
76021;SDS011;64718;52.124;6.226;2022-11-20T12:21:05;18.42;;;12.48;;
76021;SDS011;64718;52.124;6.226;2022-11-20T12:23:46;18.45;;;12.82;;
76021;SDS011;64718;52.124;6.226;2022-11-20T12:26:29;17.17;;;12.32;;
76021;SDS011;64718;52.124;6.226;2022-11-20T12:29:07;19.15;;;12.65;;
76021;SDS011;64718;52.124;6.226;2022-11-20T12:31:48;22.40;;;13.52;;
76021;SDS011;64718;52.124;6.226;2022-11-20T12:34:32;17.98;;;11.60;;
76021;SDS011;64718;52.124;6.226;2022-11-20T12:37:13;21.27;;;13.45;;
76021;SDS011;64718;52.124;6.226;2022-11-20T12:39:50;15.57;;;9.93;;
76021;SDS011;64718;52.124;6.226;2022-11-20T12:48:30;19.10;;;13.55;;
76021;SDS011;64718;52.124;6.226;2022-11-20T12:54:36;18.63;;;12.30;;
76021;SDS011;64718;52.124;6.226;2022-11-20T12:57:24;15.55;;;11.63;;
76021;SDS011;64718;52.124;6.226;2022-11-20T13:02:53;20.70;;;13.27;;
76021;SDS011;64718;52.124;6.226;2022-11-20T13:05:35;17.42;;;12.00;;
76021;SDS011;64718;52.124;6.226;2022-11-20T13:08:12;18.83;;;12.20;;
76021;SDS011;64718;52.124;6.226;2022-11-20T13:10:49;17.67;;;12.40;;
76021;SDS011;64718;52.124;6.226;2022-11-20T13:13:19;17.17;;;11.35;;
76021;SDS011;64718;52.124;6.226;2022-11-20T13:15:51;17.25;;;10.98;;
76021;SDS011;64718;52.124;6.226;2022-11-20T13:18:23;21.02;;;12.68;;
76021;SDS011;64718;52.124;6.226;2022-11-20T13:20:50;19.88;;;11.15;;
76021;SDS011;64718;52.124;6.226;2022-11-20T13:23:23;19.63;;;11.50;;
76021;SDS011;64718;52.124;6.226;2022-11-20T13:26:01;17.10;;;10.63;;
76021;SDS011;64718;52.124;6.226;2022-11-20T13:28:29;19.58;;;12.68;;
76021;SDS011;64718;52.124;6.226;2022-11-20T13:30:57;18.60;;;12.07;;
76021;SDS011;64718;52.124;6.226;2022-11-20T13:33:27;22.27;;;13.32;;
76021;SDS011;64718;52.124;6.226;2022-11-20T13:35:57;22.30;;;14.27;;
76021;SDS011;64718;52.124;6.226;2022-11-20T13:38:25;44.15;;;23.05;;
76021;SDS011;64718;52.124;6.226;2022-11-20T13:40:55;28.65;;;16.55;;
76021;SDS011;64718;52.124;6.226;2022-11-20T13:43:26;82.82;;;34.10;;
76021;SDS011;64718;52.124;6.226;2022-11-20T13:45:56;83.28;;;37.50;;
76021;SDS011;64718;52.124;6.226;2022-11-20T13:48:25;44.65;;;23.10;;
76021;SDS011;64718;52.124;6.226;2022-11-20T13:50:57;49.30;;;26.55;;
76021;SDS011;64718;52.124;6.226;2022-11-20T13:53:41;42.67;;;26.27;;
76021;SDS011;64718;52.124;6.226;2022-11-20T13:56:21;31.90;;;17.25;;
76021;SDS011;64718;52.124;6.226;2022-11-20T13:58:56;25.75;;;14.50;;
76021;SDS011;64718;52.124;6.226;2022-11-20T14:01:29;29.02;;;15.10;;
76021;SDS011;64718;52.124;6.226;2022-11-20T14:03:57;28.25;;;18.75;;
76021;SDS011;64718;52.124;6.226;2022-11-20T14:06:25;25.58;;;16.02;;
76021;SDS011;64718;52.124;6.226;2022-11-20T14:08:53;25.80;;;16.85;;
76021;SDS011;64718;52.124;6.226;2022-11-20T14:11:23;30.83;;;20.17;;
76021;SDS011;64718;52.124;6.226;2022-11-20T14:13:55;31.10;;;19.92;;
76021;SDS011;64718;52.124;6.226;2022-11-20T14:16:24;29.38;;;20.00;;
76021;SDS011;64718;52.124;6.226;2022-11-20T14:18:52;32.17;;;17.60;;
76021;SDS011;64718;52.124;6.226;2022-11-20T14:21:23;30.75;;;19.80;;
76021;SDS011;64718;52.124;6.226;2022-11-20T14:23:52;29.58;;;19.05;;
76021;SDS011;64718;52.124;6.226;2022-11-20T14:26:19;33.35;;;20.17;;
76021;SDS011;64718;52.124;6.226;2022-11-20T14:28:50;33.15;;;21.33;;
76021;SDS011;64718;52.124;6.226;2022-11-20T14:31:21;25.30;;;13.20;;
76021;SDS011;64718;52.124;6.226;2022-11-20T14:33:50;25.92;;;15.68;;
76021;SDS011;64718;52.124;6.226;2022-11-20T14:36:18;26.52;;;15.93;;
76021;SDS011;64718;52.124;6.226;2022-11-20T14:38:47;29.23;;;16.77;;
76021;SDS011;64718;52.124;6.226;2022-11-20T14:41:17;29.48;;;16.10;;
76021;SDS011;64718;52.124;6.226;2022-11-20T14:43:46;27.55;;;16.50;;
76021;SDS011;64718;52.124;6.226;2022-11-20T14:46:16;31.92;;;17.30;;
76021;SDS011;64718;52.124;6.226;2022-11-20T14:48:44;30.05;;;16.92;;
76021;SDS011;64718;52.124;6.226;2022-11-20T14:51:23;30.95;;;16.83;;
76021;SDS011;64718;52.124;6.226;2022-11-20T14:53:53;32.72;;;17.85;;
76021;SDS011;64718;52.124;6.226;2022-11-20T14:56:21;29.00;;;17.65;;
76021;SDS011;64718;52.124;6.226;2022-11-20T15:01:26;32.60;;;15.77;;